createdAt,value
2023-04-09T08:52:03.792Z,101066.34
2023-04-09T08:54:07.532Z,101066.34
2023-04-09T08:56:09.868Z,100994.19
2023-04-09T08:58:12.410Z,100986.22
2023-04-09T09:00:15.276Z,101000.56
2023-04-09T09:02:17.656Z,101050.84
2023-04-09T09:04:20.497Z,101048.28
2023-04-09T09:06:29.286Z,101093.63
2023-04-09T09:08:31.568Z,101079.22
2023-04-09T09:10:40.024Z,101091.94
2023-04-09T09:12:43.193Z,101136.75
2023-04-09T09:14:46.487Z,101151.87
2023-04-09T09:16:58.084Z,101117.47
2023-04-09T09:19:02.683Z,101117.22
2023-04-09T09:21:19.472Z,101092.59
2023-04-09T09:23:35.123Z,101114.03
2023-04-09T09:25:41.723Z,101122.31
2023-04-09T09:27:44.144Z,101132.28
2023-04-09T09:29:46.558Z,101138.34
2023-04-09T09:31:51.138Z,101150.09
2023-04-09T09:33:54.201Z,101152.88
2023-04-09T09:35:57.844Z,101157.91
2023-04-09T09:38:04.590Z,101170.88
2023-04-09T09:40:07.844Z,101170.62
2023-04-09T09:42:10.219Z,101153.25
2023-04-09T09:44:30.109Z,101148.41
2023-04-09T09:46:35.491Z,101171.66
2023-04-09T09:48:38.795Z,101187.81
2023-04-09T09:50:42.388Z,101177.41
2023-04-09T09:52:46.604Z,101179.37
2023-04-09T09:54:54.913Z,101171.63
2023-04-09T09:57:04.864Z,101124.31
2023-04-09T09:59:16.206Z,101095.84
2023-04-09T10:01:21.889Z,101096.72
2023-04-09T10:03:30.995Z,101101.25
2023-04-09T10:05:36.284Z,101089.78
2023-04-09T10:07:39.330Z,101089.91
2023-04-09T10:09:46.610Z,101097.31
2023-04-09T10:11:49.671Z,101100.44
2023-04-09T10:13:57.902Z,101079.75
2023-04-09T10:16:01.961Z,101066.91
2023-04-09T10:18:04.517Z,101088.09
2023-04-09T10:20:18.540Z,101085.09
2023-04-09T10:22:26.715Z,101096.75
2023-04-09T10:24:29.197Z,101075.09
2023-04-09T10:26:36.450Z,101044.16
2023-04-09T10:28:39.419Z,101057.66
2023-04-09T10:30:42.656Z,101073.06
2023-04-09T10:32:46.841Z,101104.44
2023-04-09T10:34:50.884Z,101120.03
2023-04-09T10:36:56.785Z,101128.87
2023-04-09T10:38:59.153Z,101135.59
2023-04-09T10:41:27.763Z,101110.88
2023-04-09T10:43:30.673Z,101077.34
2023-04-09T10:45:41.740Z,101119.44
2023-04-09T10:47:46.310Z,101147.78
2023-04-09T10:49:49.416Z,101153.16
2023-04-09T10:51:53.666Z,101175.63
2023-04-09T10:53:56.387Z,101210.13
2023-04-09T10:55:58.782Z,101237.81
2023-04-09T10:58:01.115Z,101226.13
2023-04-09T11:00:04.210Z,101235.09
2023-04-09T11:02:09.176Z,101246.66
2023-04-09T11:04:18.770Z,101258.69
2023-04-09T11:06:22.422Z,101237.72
2023-04-09T11:08:29.013Z,101239.12
2023-04-09T11:10:32.752Z,101226.91
2023-04-09T11:12:35.583Z,101218.72
2023-04-09T11:14:37.898Z,101191.97
2023-04-09T11:16:40.736Z,101166.84
2023-04-09T11:18:43.572Z,101156.16
2023-04-09T11:20:46.297Z,101152.37
2023-04-09T11:22:53.905Z,101144.34
2023-04-09T11:24:56.816Z,101128.37
2023-04-09T11:27:02.101Z,101103.66
2023-04-09T11:29:09.148Z,101100.53
2023-04-09T11:31:11.847Z,101104.75
2023-04-09T11:33:15.179Z,101111.16
2023-04-09T11:35:21.107Z,101120.28
2023-04-09T11:37:23.999Z,101143.00
2023-04-09T11:39:26.475Z,101145.41
2023-04-09T11:41:36.006Z,101148.81
2023-04-09T11:43:38.561Z,101155.25
2023-04-09T11:45:41.234Z,101100.53
2023-04-09T11:47:45.210Z,101118.00
2023-04-09T11:49:47.914Z,101112.06
2023-04-09T11:51:50.987Z,101147.28
2023-04-09T11:53:53.832Z,101176.78
2023-04-09T11:55:56.661Z,101188.50
2023-04-09T11:58:02.905Z,101186.16
2023-04-09T12:00:16.777Z,101187.00
2023-04-09T12:02:19.798Z,101203.81
2023-04-09T12:04:22.281Z,101200.91
2023-04-09T12:06:28.009Z,101203.59
2023-04-09T12:08:31.490Z,101214.91
2023-04-09T12:10:36.368Z,101204.59
2023-04-09T12:12:47.369Z,101225.44
2023-04-09T12:14:51.985Z,101231.34
2023-04-09T12:16:54.333Z,101235.75
2023-04-09T12:18:56.715Z,101234.41
2023-04-09T12:21:01.450Z,101231.78
2023-04-09T12:23:04.987Z,101240.72
2023-04-09T12:25:08.680Z,101240.09
2023-04-09T12:27:11.277Z,101259.69
2023-04-09T12:29:15.958Z,101272.44
2023-04-09T12:31:18.345Z,101295.44
2023-04-09T12:33:21.836Z,101316.69
2023-04-09T12:35:24.355Z,101336.56
2023-04-09T12:37:26.750Z,101354.38
2023-04-09T12:39:29.337Z,101360.34
2023-04-09T12:41:31.676Z,101342.25
2023-04-09T12:43:34.070Z,101344.03
2023-04-09T12:45:36.900Z,101345.81
2023-04-09T12:47:39.968Z,101344.91
2023-04-09T12:49:45.350Z,101350.22
2023-04-09T12:51:47.921Z,101343.41
2023-04-09T12:53:50.559Z,101345.97
2023-04-09T12:55:52.985Z,101364.09
2023-04-09T12:57:55.539Z,101354.00
2023-04-09T12:59:58.168Z,101348.06
2023-04-09T13:02:00.969Z,101354.59
2023-04-09T13:04:03.827Z,101368.56
2023-04-09T13:06:06.981Z,101360.69
2023-04-09T13:08:09.438Z,101351.47
2023-04-09T13:10:12.251Z,101337.94
2023-04-09T13:12:16.084Z,101337.03
2023-04-09T13:14:18.447Z,101316.97
2023-04-09T13:16:21.150Z,101305.09
2023-04-09T13:18:23.535Z,101305.94
2023-04-09T13:20:26.250Z,101288.09
2023-04-09T13:22:28.952Z,101296.44
2023-04-09T13:24:31.402Z,101309.03
2023-04-09T13:26:33.833Z,101318.09
2023-04-09T13:28:36.703Z,101323.62
2023-04-09T13:30:39.055Z,101321.16
2023-04-09T13:32:42.264Z,101322.16
2023-04-09T13:34:44.901Z,101308.44
2023-04-09T13:36:47.244Z,101293.66
2023-04-09T13:38:49.565Z,101266.69
2023-04-09T13:40:52.257Z,101250.87
2023-04-09T13:42:54.506Z,101268.50
2023-04-09T13:44:57.549Z,101264.47
2023-04-09T13:47:00.546Z,101250.91
2023-04-09T13:49:03.301Z,101239.28
2023-04-09T13:51:06.956Z,101228.72
2023-04-09T13:53:09.651Z,101225.25
2023-04-09T13:55:12.138Z,101225.91
2023-04-09T13:57:14.655Z,101224.00
2023-04-09T13:59:17.360Z,101221.09
2023-04-09T14:01:19.764Z,101204.13
2023-04-09T14:03:22.512Z,101197.09
2023-04-09T14:05:25.074Z,101187.19
2023-04-09T14:07:27.383Z,101191.25
2023-04-09T14:09:30.389Z,101182.56
2023-04-09T14:11:32.790Z,101175.09
2023-04-09T14:13:35.126Z,101169.91
2023-04-09T14:15:38.367Z,101174.25
2023-04-09T14:17:40.801Z,101182.66
2023-04-09T14:19:43.194Z,101177.16
2023-04-09T14:21:46.106Z,101180.81
2023-04-09T14:23:48.509Z,101185.87
2023-04-09T14:25:51.353Z,101191.12
2023-04-09T14:27:53.915Z,101208.31
2023-04-09T14:29:56.268Z,101216.66
2023-04-09T14:31:58.710Z,101214.91
2023-04-09T14:34:01.244Z,101207.00
2023-04-09T14:36:03.837Z,101200.97
2023-04-09T14:38:06.360Z,101181.12
2023-04-09T14:40:09.678Z,101180.19
2023-04-09T14:42:12.625Z,101177.91
2023-04-09T14:44:15.075Z,101171.81
2023-04-09T14:46:17.723Z,101170.97
2023-04-09T14:48:20.368Z,101162.66
2023-04-09T14:50:22.726Z,101167.28
2023-04-09T14:52:25.918Z,101160.62
2023-04-09T14:54:30.402Z,101172.59
2023-04-09T14:56:32.805Z,101165.78
2023-04-09T14:58:36.358Z,101175.09
2023-04-09T15:00:39.068Z,101164.34
2023-04-09T15:02:41.876Z,101163.00
2023-04-09T15:04:44.935Z,101157.22
2023-04-09T15:06:47.968Z,101156.34
2023-04-09T15:08:50.445Z,101168.00
2023-04-09T15:10:53.172Z,101156.25
2023-04-09T15:12:55.538Z,101150.91
2023-04-09T15:14:58.520Z,101147.44
2023-04-09T15:17:01.104Z,101151.03
2023-04-09T15:19:04.072Z,101156.44
2023-04-09T15:21:07.136Z,101156.00
2023-04-09T15:23:10.834Z,101152.31
2023-04-09T15:25:14.389Z,101160.88
2023-04-09T15:27:18.300Z,101141.87
2023-04-09T15:29:20.921Z,101142.69
2023-04-09T15:31:23.309Z,101136.19
2023-04-09T15:33:27.314Z,101135.41
2023-04-09T15:35:29.994Z,101137.78
2023-04-09T15:37:32.663Z,101131.78
2023-04-09T15:39:35.199Z,101127.38
2023-04-09T15:41:38.081Z,101129.25
2023-04-09T15:43:40.385Z,101124.25
2023-04-09T15:45:43.002Z,101132.19
2023-04-09T15:47:46.256Z,101126.25
2023-04-09T15:49:48.654Z,101118.03
2023-04-09T15:51:51.024Z,101111.44
2023-04-09T15:53:53.627Z,101103.25
2023-04-09T15:55:56.019Z,101103.03
2023-04-09T15:57:58.325Z,101096.34
2023-04-09T16:00:01.095Z,101084.25
2023-04-09T16:02:04.567Z,101063.22
2023-04-09T16:04:09.029Z,101047.09
2023-04-09T16:06:14.842Z,101053.25
2023-04-09T16:08:17.105Z,101055.09
2023-04-09T16:10:19.835Z,101051.47
2023-04-09T16:12:23.322Z,101049.72
2023-04-09T16:14:25.601Z,101049.12
2023-04-09T16:16:28.203Z,101053.31
2023-04-09T16:18:30.662Z,101053.41
2023-04-09T16:20:33.130Z,101044.31
2023-04-09T16:22:35.739Z,101053.03
2023-04-09T16:24:38.080Z,101050.59
2023-04-09T16:26:42.225Z,101045.12
2023-04-09T16:28:44.851Z,101054.16
2023-04-09T16:30:47.701Z,101050.34
2023-04-09T16:32:50.452Z,101040.50
2023-04-09T16:34:53.052Z,101037.47
2023-04-09T16:36:55.346Z,101032.38
2023-04-09T16:38:58.108Z,101037.88
2023-04-09T16:41:00.936Z,101042.22
2023-04-09T16:43:03.746Z,101035.53
2023-04-09T16:45:06.565Z,101041.88
2023-04-09T16:47:09.235Z,101044.31
2023-04-09T16:49:11.665Z,101041.50
2023-04-09T16:51:13.962Z,101041.97
2023-04-09T16:53:16.648Z,101049.16
2023-04-09T16:55:19.002Z,101040.22
2023-04-09T16:57:21.284Z,101035.28
2023-04-09T16:59:24.214Z,101032.41
2023-04-09T17:01:27.675Z,101019.69
2023-04-09T17:03:30.110Z,101005.47
2023-04-09T17:05:32.888Z,100994.06
2023-04-09T17:07:35.423Z,100995.41
2023-04-09T17:09:38.051Z,100996.63
2023-04-09T17:11:40.791Z,100988.91
2023-04-09T17:13:43.150Z,100989.09
2023-04-09T17:15:45.433Z,100991.88
2023-04-09T17:17:51.270Z,100999.78
2023-04-09T17:19:53.705Z,100992.41
2023-04-09T17:21:57.145Z,101006.44
2023-04-09T17:24:01.871Z,100993.66
2023-04-09T17:26:04.406Z,101001.00
2023-04-09T17:28:07.009Z,100985.53
2023-04-09T17:30:10.159Z,100997.03
2023-04-09T17:32:12.444Z,100990.50
2023-04-09T17:34:16.390Z,100993.72
2023-04-09T17:36:20.694Z,101003.09
2023-04-09T17:38:25.131Z,101002.56
2023-04-09T17:40:28.532Z,101003.66
2023-04-09T17:42:31.317Z,101003.78
2023-04-09T17:44:35.448Z,101003.94
2023-04-09T17:46:39.186Z,101012.50
2023-04-09T17:48:42.085Z,101004.06
2023-04-09T17:50:44.378Z,100997.78
2023-04-09T17:52:47.453Z,101013.97
2023-04-09T17:54:51.029Z,101008.88
2023-04-09T17:56:53.432Z,101019.25
2023-04-09T17:58:55.723Z,101017.44
2023-04-09T18:00:59.621Z,101012.16
2023-04-09T18:03:02.629Z,101017.53
2023-04-09T18:05:05.472Z,101021.06
2023-04-09T18:07:08.009Z,101030.50
2023-04-09T18:09:10.902Z,101033.87
2023-04-09T18:11:15.626Z,101033.87
2023-04-09T18:13:18.007Z,101042.38
2023-04-09T18:15:21.828Z,101031.44
2023-04-09T18:17:26.277Z,101035.22
2023-04-09T18:19:28.633Z,101033.16
2023-04-09T18:21:31.730Z,101033.72
2023-04-09T18:23:34.179Z,101022.66
2023-04-09T18:25:37.630Z,101030.00
2023-04-09T18:27:40.410Z,101021.53
2023-04-09T18:29:42.705Z,101020.09
2023-04-09T18:31:45.668Z,101014.78
2023-04-09T18:33:48.380Z,101008.94
2023-04-09T18:35:50.997Z,101008.62
2023-04-09T18:37:53.585Z,101000.69
2023-04-09T18:39:56.683Z,100998.16
2023-04-09T18:41:58.968Z,100992.19
2023-04-09T18:44:01.462Z,100985.44
2023-04-09T18:46:04.341Z,100980.50
2023-04-09T18:48:08.199Z,100977.69
2023-04-09T18:50:11.267Z,100971.78
2023-04-09T18:52:13.947Z,100967.53
2023-04-09T18:54:16.349Z,100961.63
2023-04-09T18:56:20.133Z,100966.78
2023-04-09T18:58:24.331Z,100960.03
2023-04-09T19:00:27.747Z,100959.31
2023-04-09T19:02:30.453Z,100959.53
2023-04-09T19:04:39.619Z,100948.44
2023-04-09T19:06:44.668Z,100942.41
2023-04-09T19:08:48.282Z,100935.66
2023-04-09T19:10:51.292Z,100939.00
2023-04-09T19:12:54.474Z,100933.91
2023-04-09T19:14:56.915Z,100925.44
2023-04-09T19:17:00.037Z,100924.63
2023-04-09T19:19:02.592Z,100918.63
2023-04-09T19:21:07.628Z,100925.59
2023-04-09T19:23:10.865Z,100929.78
2023-04-09T19:25:13.272Z,100922.34
2023-04-09T19:27:15.828Z,100917.28
2023-04-09T19:29:19.284Z,100913.91
2023-04-09T19:31:22.212Z,100917.59
2023-04-09T19:33:26.565Z,100897.81
2023-04-09T19:35:29.686Z,100901.34
2023-04-09T19:37:32.135Z,100901.97
2023-04-09T19:39:34.608Z,100897.00
2023-04-09T19:41:37.273Z,100892.88
2023-04-09T19:43:42.024Z,100883.22
2023-04-09T19:45:44.518Z,100882.25
2023-04-09T19:47:47.178Z,100881.28
2023-04-09T19:49:49.503Z,100878.78
2023-04-09T19:51:51.810Z,100876.34
2023-04-09T19:53:54.630Z,100876.56
2023-04-09T19:55:56.971Z,100865.13
2023-04-09T19:57:59.330Z,100873.97
2023-04-09T20:00:02.343Z,100873.03
2023-04-09T20:02:13.528Z,100872.13
2023-04-09T20:04:16.366Z,100868.94
2023-04-09T20:06:18.743Z,100867.25
2023-04-09T20:08:21.349Z,100867.09
2023-04-09T20:10:24.055Z,100865.25
2023-04-09T20:12:29.413Z,100863.66
2023-04-09T20:14:31.712Z,100866.97
2023-04-09T20:16:34.392Z,100869.59
2023-04-09T20:18:36.682Z,100877.37
2023-04-09T20:20:39.048Z,100880.75
2023-04-09T20:22:43.783Z,100886.88
2023-04-09T20:24:46.583Z,100894.72
2023-04-09T20:26:48.905Z,100891.50
2023-04-09T20:28:51.640Z,100893.31
2023-04-09T20:30:54.098Z,100887.94
2023-04-09T20:32:56.489Z,100887.72
2023-04-09T20:34:59.092Z,100883.75
2023-04-09T20:39:04.117Z,100875.19
2023-04-09T20:41:06.755Z,100873.59
2023-04-09T20:43:09.071Z,100873.59
2023-04-09T20:45:11.477Z,100875.56
2023-04-09T20:47:15.549Z,100866.25
2023-04-09T20:49:18.131Z,100854.97
2023-04-09T20:51:20.639Z,100853.31
2023-04-09T20:53:24.896Z,100844.66
2023-04-09T20:55:27.221Z,100844.78
2023-04-09T20:57:29.629Z,100837.97
2023-04-09T20:59:32.228Z,100834.59
2023-04-09T21:01:35.909Z,100830.09
2023-04-09T21:03:40.144Z,100837.84
2023-04-09T21:05:43.056Z,100836.25
2023-04-09T21:07:45.420Z,100832.09
2023-04-09T21:09:47.739Z,100836.19
2023-04-09T21:11:50.514Z,100832.03
2023-04-09T21:13:54.949Z,100839.19
2023-04-09T21:15:58.077Z,100842.81
2023-04-09T21:18:00.965Z,100830.72
2023-04-09T21:20:04.561Z,100833.50
2023-04-09T21:22:07.084Z,100818.81
2023-04-09T21:24:09.733Z,100820.44
2023-04-09T21:26:12.686Z,100817.72
2023-04-09T21:28:15.013Z,100828.44
2023-04-09T21:30:17.658Z,100819.72
2023-04-09T21:32:20.192Z,100812.94
2023-04-09T21:34:22.678Z,100813.03
2023-04-09T21:36:28.428Z,100814.69
2023-04-09T21:38:30.762Z,100810.50
2023-04-09T21:40:33.634Z,100807.84
2023-04-09T21:42:36.374Z,100808.06
2023-04-09T21:44:39.063Z,100805.31
2023-04-09T21:46:41.828Z,100803.72
2023-04-09T21:48:44.470Z,100797.62
2023-04-09T21:50:47.207Z,100797.75
2023-04-09T21:52:49.477Z,100801.22
2023-04-09T21:54:52.038Z,100802.00
2023-04-09T21:56:54.344Z,100803.88
